sensor_id;sensor_type;location;lat;lon;timestamp;P1;durP1;ratioP1;P2;durP2;ratioP2
74510;SDS011;62991;50.040;18.400;2022-09-21T00:01:42;4.70;;;2.05;;
74510;SDS011;62991;50.040;18.400;2022-09-21T00:04:42;5.15;;;2.05;;
74510;SDS011;62991;50.040;18.400;2022-09-21T00:07:43;5.60;;;2.05;;
74510;SDS011;62991;50.040;18.400;2022-09-21T00:10:48;3.55;;;1.58;;
74510;SDS011;62991;50.040;18.400;2022-09-21T00:13:56;8.82;;;2.42;;
74510;SDS011;62991;50.040;18.400;2022-09-21T00:16:59;7.15;;;3.30;;
74510;SDS011;62991;50.040;18.400;2022-09-21T00:20:00;5.40;;;2.47;;
74510;SDS011;62991;50.040;18.400;2022-09-21T00:23:04;10.30;;;2.33;;
74510;SDS011;62991;50.040;18.400;2022-09-21T00:26:09;7.18;;;2.95;;
74510;SDS011;62991;50.040;18.400;2022-09-21T00:29:15;3.22;;;1.98;;
74510;SDS011;62991;50.040;18.400;2022-09-21T00:32:15;4.47;;;2.05;;
74510;SDS011;62991;50.040;18.400;2022-09-21T00:35:16;3.97;;;2.17;;
74510;SDS011;62991;50.040;18.400;2022-09-21T00:38:17;5.72;;;2.25;;
74510;SDS011;62991;50.040;18.400;2022-09-21T00:41:17;3.55;;;1.90;;
74510;SDS011;62991;50.040;18.400;2022-09-21T00:44:22;5.75;;;2.80;;
74510;SDS011;62991;50.040;18.400;2022-09-21T00:47:37;7.15;;;3.13;;
74510;SDS011;62991;50.040;18.400;2022-09-21T00:50:42;5.80;;;2.70;;
74510;SDS011;62991;50.040;18.400;2022-09-21T00:53:50;8.52;;;3.25;;
74510;SDS011;62991;50.040;18.400;2022-09-21T00:56:55;4.15;;;1.85;;
74510;SDS011;62991;50.040;18.400;2022-09-21T01:00:04;4.30;;;1.65;;
74510;SDS011;62991;50.040;18.400;2022-09-21T01:03:08;4.95;;;2.20;;
74510;SDS011;62991;50.040;18.400;2022-09-21T01:06:11;6.07;;;1.58;;
74510;SDS011;62991;50.040;18.400;2022-09-21T01:09:13;3.75;;;1.73;;
74510;SDS011;62991;50.040;18.400;2022-09-21T01:22:35;3.67;;;1.67;;
74510;SDS011;62991;50.040;18.400;2022-09-21T01:29:25;2.30;;;1.08;;
74510;SDS011;62991;50.040;18.400;2022-09-21T01:35:42;2.45;;;1.65;;
74510;SDS011;62991;50.040;18.400;2022-09-21T01:38:52;6.68;;;3.05;;
74510;SDS011;62991;50.040;18.400;2022-09-21T01:41:57;4.40;;;2.55;;
74510;SDS011;62991;50.040;18.400;2022-09-21T01:44:59;3.33;;;1.73;;
74510;SDS011;62991;50.040;18.400;2022-09-21T01:48:06;3.05;;;1.42;;
74510;SDS011;62991;50.040;18.400;2022-09-21T01:51:08;2.80;;;1.60;;
74510;SDS011;62991;50.040;18.400;2022-09-21T01:54:17;2.38;;;1.50;;
74510;SDS011;62991;50.040;18.400;2022-09-21T01:57:30;3.67;;;1.73;;
74510;SDS011;62991;50.040;18.400;2022-09-21T02:00:38;3.85;;;2.03;;
74510;SDS011;62991;50.040;18.400;2022-09-21T02:03:42;2.92;;;1.45;;
74510;SDS011;62991;50.040;18.400;2022-09-21T02:06:48;5.80;;;1.70;;
74510;SDS011;62991;50.040;18.400;2022-09-21T02:09:50;3.65;;;1.88;;
74510;SDS011;62991;50.040;18.400;2022-09-21T02:12:54;7.35;;;3.05;;
74510;SDS011;62991;50.040;18.400;2022-09-21T02:19:11;3.80;;;1.75;;
74510;SDS011;62991;50.040;18.400;2022-09-21T02:22:32;2.95;;;1.65;;
74510;SDS011;62991;50.040;18.400;2022-09-21T02:25:45;4.18;;;2.00;;
74510;SDS011;62991;50.040;18.400;2022-09-21T02:32:31;2.63;;;1.50;;
74510;SDS011;62991;50.040;18.400;2022-09-21T02:39:06;4.53;;;2.10;;
74510;SDS011;62991;50.040;18.400;2022-09-21T02:42:12;2.67;;;1.50;;
74510;SDS011;62991;50.040;18.400;2022-09-21T02:45:18;10.23;;;2.58;;
74510;SDS011;62991;50.040;18.400;2022-09-21T02:49:09;3.03;;;1.73;;
74510;SDS011;62991;50.040;18.400;2022-09-21T02:51:49;8.18;;;2.75;;
74510;SDS011;62991;50.040;18.400;2022-09-21T02:54:52;4.20;;;2.20;;
74510;SDS011;62991;50.040;18.400;2022-09-21T02:57:54;2.40;;;1.35;;
74510;SDS011;62991;50.040;18.400;2022-09-21T03:00:56;3.72;;;1.75;;
74510;SDS011;62991;50.040;18.400;2022-09-21T03:03:58;6.63;;;2.38;;
74510;SDS011;62991;50.040;18.400;2022-09-21T03:06:59;3.33;;;2.20;;
74510;SDS011;62991;50.040;18.400;2022-09-21T03:09:59;6.20;;;2.50;;
74510;SDS011;62991;50.040;18.400;2022-09-21T03:13:00;6.82;;;2.25;;
74510;SDS011;62991;50.040;18.400;2022-09-21T03:16:02;11.32;;;2.47;;
74510;SDS011;62991;50.040;18.400;2022-09-21T03:19:04;2.88;;;1.65;;
74510;SDS011;62991;50.040;18.400;2022-09-21T03:22:05;2.22;;;1.20;;
74510;SDS011;62991;50.040;18.400;2022-09-21T03:25:06;3.00;;;1.83;;
74510;SDS011;62991;50.040;18.400;2022-09-21T03:28:11;3.08;;;1.55;;
74510;SDS011;62991;50.040;18.400;2022-09-21T03:31:13;4.28;;;2.38;;
74510;SDS011;62991;50.040;18.400;2022-09-21T03:34:13;4.50;;;1.88;;
74510;SDS011;62991;50.040;18.400;2022-09-21T03:37:14;5.57;;;2.03;;
74510;SDS011;62991;50.040;18.400;2022-09-21T03:40:16;6.97;;;3.55;;
74510;SDS011;62991;50.040;18.400;2022-09-21T03:43:17;7.70;;;2.88;;
74510;SDS011;62991;50.040;18.400;2022-09-21T03:46:17;4.28;;;2.35;;
74510;SDS011;62991;50.040;18.400;2022-09-21T03:49:18;7.80;;;2.60;;
74510;SDS011;62991;50.040;18.400;2022-09-21T03:52:19;6.70;;;3.13;;
74510;SDS011;62991;50.040;18.400;2022-09-21T03:55:19;7.25;;;3.00;;
74510;SDS011;62991;50.040;18.400;2022-09-21T03:58:20;8.95;;;3.45;;
74510;SDS011;62991;50.040;18.400;2022-09-21T04:01:21;6.72;;;3.47;;
74510;SDS011;62991;50.040;18.400;2022-09-21T04:04:22;7.53;;;3.25;;
74510;SDS011;62991;50.040;18.400;2022-09-21T04:07:22;8.60;;;2.92;;
74510;SDS011;62991;50.040;18.400;2022-09-21T04:10:23;18.85;;;3.70;;
74510;SDS011;62991;50.040;18.400;2022-09-21T04:13:28;7.72;;;3.58;;
74510;SDS011;62991;50.040;18.400;2022-09-21T04:16:29;7.03;;;3.22;;
74510;SDS011;62991;50.040;18.400;2022-09-21T04:19:29;10.48;;;5.50;;
74510;SDS011;62991;50.040;18.400;2022-09-21T04:22:30;9.38;;;4.07;;
74510;SDS011;62991;50.040;18.400;2022-09-21T04:25:31;11.00;;;4.68;;
74510;SDS011;62991;50.040;18.400;2022-09-21T04:28:32;7.47;;;4.10;;
74510;SDS011;62991;50.040;18.400;2022-09-21T04:31:33;8.50;;;4.15;;
74510;SDS011;62991;50.040;18.400;2022-09-21T04:34:34;13.43;;;4.22;;
74510;SDS011;62991;50.040;18.400;2022-09-21T04:37:35;10.48;;;4.70;;
74510;SDS011;62991;50.040;18.400;2022-09-21T04:40:36;10.95;;;5.10;;
74510;SDS011;62991;50.040;18.400;2022-09-21T04:43:37;11.38;;;5.13;;
74510;SDS011;62991;50.040;18.400;2022-09-21T04:46:40;8.82;;;3.83;;
74510;SDS011;62991;50.040;18.400;2022-09-21T04:49:41;8.98;;;4.57;;
74510;SDS011;62991;50.040;18.400;2022-09-21T04:52:42;9.75;;;5.10;;
74510;SDS011;62991;50.040;18.400;2022-09-21T04:55:43;12.85;;;5.65;;
74510;SDS011;62991;50.040;18.400;2022-09-21T04:58:45;10.30;;;4.68;;
74510;SDS011;62991;50.040;18.400;2022-09-21T05:01:46;10.18;;;4.75;;
74510;SDS011;62991;50.040;18.400;2022-09-21T05:04:46;6.88;;;3.45;;
74510;SDS011;62991;50.040;18.400;2022-09-21T05:07:47;13.45;;;5.63;;
74510;SDS011;62991;50.040;18.400;2022-09-21T05:10:48;8.32;;;3.95;;
74510;SDS011;62991;50.040;18.400;2022-09-21T05:13:52;13.13;;;5.30;;
74510;SDS011;62991;50.040;18.400;2022-09-21T05:16:52;9.32;;;5.07;;
74510;SDS011;62991;50.040;18.400;2022-09-21T05:19:53;7.15;;;2.95;;
74510;SDS011;62991;50.040;18.400;2022-09-21T05:22:54;7.80;;;3.22;;
74510;SDS011;62991;50.040;18.400;2022-09-21T05:25:55;5.57;;;2.70;;
74510;SDS011;62991;50.040;18.400;2022-09-21T05:28:56;4.93;;;2.92;;
74510;SDS011;62991;50.040;18.400;2022-09-21T05:32:02;6.90;;;3.17;;
74510;SDS011;62991;50.040;18.400;2022-09-21T05:38:18;8.15;;;3.65;;
74510;SDS011;62991;50.040;18.400;2022-09-21T05:41:19;6.38;;;3.10;;
74510;SDS011;62991;50.040;18.400;2022-09-21T05:44:20;6.00;;;3.20;;
74510;SDS011;62991;50.040;18.400;2022-09-21T05:47:35;6.47;;;3.30;;
74510;SDS011;62991;50.040;18.400;2022-09-21T05:50:52;9.32;;;3.53;;
74510;SDS011;62991;50.040;18.400;2022-09-21T06:04:13;9.90;;;4.32;;
74510;SDS011;62991;50.040;18.400;2022-09-21T06:07:14;8.77;;;3.60;;
74510;SDS011;62991;50.040;18.400;2022-09-21T06:10:15;12.15;;;5.07;;
74510;SDS011;62991;50.040;18.400;2022-09-21T06:13:16;12.32;;;5.90;;
74510;SDS011;62991;50.040;18.400;2022-09-21T06:16:17;16.48;;;8.32;;
74510;SDS011;62991;50.040;18.400;2022-09-21T06:19:18;12.35;;;5.68;;
74510;SDS011;62991;50.040;18.400;2022-09-21T06:22:18;13.30;;;5.85;;
74510;SDS011;62991;50.040;18.400;2022-09-21T06:25:19;18.88;;;7.05;;
74510;SDS011;62991;50.040;18.400;2022-09-21T06:28:21;11.27;;;5.70;;
74510;SDS011;62991;50.040;18.400;2022-09-21T06:31:21;6.85;;;3.75;;
74510;SDS011;62991;50.040;18.400;2022-09-21T06:34:22;7.15;;;3.75;;
74510;SDS011;62991;50.040;18.400;2022-09-21T06:37:23;5.25;;;3.33;;
74510;SDS011;62991;50.040;18.400;2022-09-21T06:40:24;7.95;;;3.47;;
74510;SDS011;62991;50.040;18.400;2022-09-21T06:43:25;6.70;;;3.40;;
74510;SDS011;62991;50.040;18.400;2022-09-21T06:46:26;6.78;;;3.90;;
74510;SDS011;62991;50.040;18.400;2022-09-21T06:49:27;6.22;;;3.28;;
74510;SDS011;62991;50.040;18.400;2022-09-21T06:52:27;9.65;;;3.97;;
74510;SDS011;62991;50.040;18.400;2022-09-21T06:55:28;6.03;;;2.72;;
74510;SDS011;62991;50.040;18.400;2022-09-21T06:58:30;7.95;;;4.07;;
74510;SDS011;62991;50.040;18.400;2022-09-21T07:01:33;13.32;;;5.40;;
74510;SDS011;62991;50.040;18.400;2022-09-21T07:04:34;11.23;;;4.82;;
74510;SDS011;62991;50.040;18.400;2022-09-21T07:07:34;9.45;;;4.57;;
74510;SDS011;62991;50.040;18.400;2022-09-21T07:10:35;10.18;;;5.57;;
74510;SDS011;62991;50.040;18.400;2022-09-21T07:13:36;8.88;;;4.03;;
74510;SDS011;62991;50.040;18.400;2022-09-21T07:16:37;7.30;;;4.07;;
74510;SDS011;62991;50.040;18.400;2022-09-21T07:19:39;9.65;;;3.88;;
74510;SDS011;62991;50.040;18.400;2022-09-21T07:22:40;7.93;;;4.53;;
74510;SDS011;62991;50.040;18.400;2022-09-21T07:25:44;6.45;;;2.60;;
74510;SDS011;62991;50.040;18.400;2022-09-21T07:28:48;9.38;;;3.47;;
74510;SDS011;62991;50.040;18.400;2022-09-21T07:31:49;7.30;;;3.45;;
74510;SDS011;62991;50.040;18.400;2022-09-21T07:34:50;8.40;;;3.22;;
74510;SDS011;62991;50.040;18.400;2022-09-21T07:38:03;7.82;;;3.40;;
74510;SDS011;62991;50.040;18.400;2022-09-21T07:41:05;6.82;;;4.30;;
74510;SDS011;62991;50.040;18.400;2022-09-21T07:44:07;7.03;;;3.25;;
74510;SDS011;62991;50.040;18.400;2022-09-21T07:47:07;11.50;;;5.20;;
74510;SDS011;62991;50.040;18.400;2022-09-21T07:50:08;11.82;;;4.47;;
74510;SDS011;62991;50.040;18.400;2022-09-21T07:53:09;12.52;;;5.00;;
74510;SDS011;62991;50.040;18.400;2022-09-21T07:56:10;7.57;;;3.15;;
74510;SDS011;62991;50.040;18.400;2022-09-21T07:59:16;6.70;;;2.78;;
74510;SDS011;62991;50.040;18.400;2022-09-21T08:02:17;7.57;;;4.15;;
74510;SDS011;62991;50.040;18.400;2022-09-21T08:05:18;8.70;;;4.40;;
74510;SDS011;62991;50.040;18.400;2022-09-21T08:08:18;6.22;;;2.95;;
74510;SDS011;62991;50.040;18.400;2022-09-21T08:11:20;9.25;;;4.25;;
74510;SDS011;62991;50.040;18.400;2022-09-21T08:14:22;11.15;;;4.82;;
74510;SDS011;62991;50.040;18.400;2022-09-21T08:17:23;9.85;;;4.63;;
74510;SDS011;62991;50.040;18.400;2022-09-21T08:20:24;5.70;;;2.92;;
74510;SDS011;62991;50.040;18.400;2022-09-21T08:23:25;5.30;;;2.95;;
74510;SDS011;62991;50.040;18.400;2022-09-21T08:26:28;8.45;;;5.05;;
74510;SDS011;62991;50.040;18.400;2022-09-21T08:29:28;10.35;;;4.72;;
74510;SDS011;62991;50.040;18.400;2022-09-21T08:32:29;8.95;;;3.80;;
74510;SDS011;62991;50.040;18.400;2022-09-21T08:35:30;7.63;;;3.80;;
74510;SDS011;62991;50.040;18.400;2022-09-21T08:38:31;10.43;;;4.45;;
74510;SDS011;62991;50.040;18.400;2022-09-21T08:45:03;8.65;;;4.30;;
74510;SDS011;62991;50.040;18.400;2022-09-21T08:48:20;9.82;;;4.43;;
74510;SDS011;62991;50.040;18.400;2022-09-21T08:51:28;8.18;;;4.35;;
74510;SDS011;62991;50.040;18.400;2022-09-21T08:57:45;12.05;;;3.55;;
74510;SDS011;62991;50.040;18.400;2022-09-21T09:00:46;9.43;;;4.38;;
74510;SDS011;62991;50.040;18.400;2022-09-21T09:07:39;7.65;;;4.22;;
74510;SDS011;62991;50.040;18.400;2022-09-21T09:10:49;13.40;;;4.93;;
74510;SDS011;62991;50.040;18.400;2022-09-21T09:20:18;7.82;;;4.22;;
74510;SDS011;62991;50.040;18.400;2022-09-21T09:24:05;5.75;;;2.88;;
74510;SDS011;62991;50.040;18.400;2022-09-21T09:30:19;6.88;;;2.92;;
74510;SDS011;62991;50.040;18.400;2022-09-21T09:33:34;7.88;;;3.63;;
74510;SDS011;62991;50.040;18.400;2022-09-21T09:36:45;6.90;;;4.07;;
74510;SDS011;62991;50.040;18.400;2022-09-21T09:39:50;10.45;;;4.55;;
74510;SDS011;62991;50.040;18.400;2022-09-21T09:46:14;9.10;;;4.13;;
74510;SDS011;62991;50.040;18.400;2022-09-21T09:52:36;6.13;;;2.90;;
74510;SDS011;62991;50.040;18.400;2022-09-21T09:55:39;6.60;;;3.38;;
74510;SDS011;62991;50.040;18.400;2022-09-21T09:58:44;5.75;;;3.17;;
74510;SDS011;62991;50.040;18.400;2022-09-21T10:01:59;6.13;;;3.33;;
74510;SDS011;62991;50.040;18.400;2022-09-21T10:05:03;8.40;;;3.97;;
74510;SDS011;62991;50.040;18.400;2022-09-21T10:08:05;11.10;;;4.85;;
74510;SDS011;62991;50.040;18.400;2022-09-21T10:11:35;7.82;;;4.10;;
74510;SDS011;62991;50.040;18.400;2022-09-21T10:14:37;7.57;;;3.78;;
74510;SDS011;62991;50.040;18.400;2022-09-21T10:17:38;7.60;;;2.95;;
74510;SDS011;62991;50.040;18.400;2022-09-21T10:20:38;11.18;;;3.75;;
74510;SDS011;62991;50.040;18.400;2022-09-21T10:24:13;5.68;;;2.53;;
74510;SDS011;62991;50.040;18.400;2022-09-21T10:27:26;7.55;;;3.25;;
74510;SDS011;62991;50.040;18.400;2022-09-21T10:30:31;7.68;;;3.60;;
74510;SDS011;62991;50.040;18.400;2022-09-21T10:33:34;7.65;;;3.50;;
74510;SDS011;62991;50.040;18.400;2022-09-21T10:37:47;6.80;;;3.38;;
74510;SDS011;62991;50.040;18.400;2022-09-21T10:40:37;7.43;;;4.05;;
74510;SDS011;62991;50.040;18.400;2022-09-21T10:43:40;8.00;;;4.18;;
74510;SDS011;62991;50.040;18.400;2022-09-21T10:46:42;9.98;;;4.55;;
74510;SDS011;62991;50.040;18.400;2022-09-21T10:49:46;11.20;;;3.67;;
74510;SDS011;62991;50.040;18.400;2022-09-21T10:53:09;7.55;;;3.15;;
74510;SDS011;62991;50.040;18.400;2022-09-21T10:56:17;8.40;;;4.07;;
74510;SDS011;62991;50.040;18.400;2022-09-21T11:02:41;8.32;;;3.63;;
74510;SDS011;62991;50.040;18.400;2022-09-21T11:09:38;6.88;;;3.40;;
74510;SDS011;62991;50.040;18.400;2022-09-21T11:19:19;8.07;;;3.17;;
74510;SDS011;62991;50.040;18.400;2022-09-21T11:29:16;15.40;;;5.05;;
74510;SDS011;62991;50.040;18.400;2022-09-21T11:38:53;6.43;;;2.83;;
74510;SDS011;62991;50.040;18.400;2022-09-21T11:42:25;11.45;;;4.22;;
74510;SDS011;62991;50.040;18.400;2022-09-21T11:53:19;9.85;;;3.45;;
74510;SDS011;62991;50.040;18.400;2022-09-21T11:56:14;7.55;;;3.40;;
74510;SDS011;62991;50.040;18.400;2022-09-21T12:13:07;4.88;;;3.15;;
74510;SDS011;62991;50.040;18.400;2022-09-21T12:22:43;4.85;;;2.85;;
74510;SDS011;62991;50.040;18.400;2022-09-21T12:25:47;4.97;;;2.72;;
74510;SDS011;62991;50.040;18.400;2022-09-21T12:28:56;4.78;;;2.63;;
74510;SDS011;62991;50.040;18.400;2022-09-21T12:38:46;4.55;;;2.50;;
74510;SDS011;62991;50.040;18.400;2022-09-21T12:41:55;6.63;;;2.28;;
74510;SDS011;62991;50.040;18.400;2022-09-21T12:48:27;4.57;;;2.30;;
74510;SDS011;62991;50.040;18.400;2022-09-21T12:51:33;5.28;;;2.70;;
74510;SDS011;62991;50.040;18.400;2022-09-21T12:58:00;3.65;;;2.05;;
74510;SDS011;62991;50.040;18.400;2022-09-21T13:01:15;3.00;;;1.90;;
74510;SDS011;62991;50.040;18.400;2022-09-21T13:08:10;6.78;;;2.25;;
74510;SDS011;62991;50.040;18.400;2022-09-21T13:11:13;7.28;;;2.67;;
74510;SDS011;62991;50.040;18.400;2022-09-21T13:14:20;8.75;;;3.30;;
74510;SDS011;62991;50.040;18.400;2022-09-21T13:17:27;4.93;;;2.60;;
74510;SDS011;62991;50.040;18.400;2022-09-21T13:20:34;4.85;;;2.20;;
74510;SDS011;62991;50.040;18.400;2022-09-21T13:23:37;9.13;;;3.15;;
74510;SDS011;62991;50.040;18.400;2022-09-21T13:26:50;4.00;;;2.28;;
74510;SDS011;62991;50.040;18.400;2022-09-21T13:30:17;7.38;;;3.00;;
74510;SDS011;62991;50.040;18.400;2022-09-21T13:33:28;4.18;;;2.00;;
74510;SDS011;62991;50.040;18.400;2022-09-21T13:36:36;3.38;;;1.65;;
74510;SDS011;62991;50.040;18.400;2022-09-21T13:43:16;7.40;;;2.17;;
74510;SDS011;62991;50.040;18.400;2022-09-21T13:49:44;5.63;;;2.17;;
74510;SDS011;62991;50.040;18.400;2022-09-21T13:52:51;4.50;;;1.65;;
74510;SDS011;62991;50.040;18.400;2022-09-21T13:55:59;6.65;;;2.65;;
74510;SDS011;62991;50.040;18.400;2022-09-21T13:59:19;3.45;;;1.95;;
74510;SDS011;62991;50.040;18.400;2022-09-21T14:03:16;7.53;;;1.88;;
74510;SDS011;62991;50.040;18.400;2022-09-21T14:05:54;3.85;;;1.90;;
74510;SDS011;62991;50.040;18.400;2022-09-21T14:09:06;5.20;;;1.95;;
74510;SDS011;62991;50.040;18.400;2022-09-21T14:12:22;2.63;;;1.52;;
74510;SDS011;62991;50.040;18.400;2022-09-21T14:18:36;6.50;;;1.85;;
74510;SDS011;62991;50.040;18.400;2022-09-21T14:21:37;3.53;;;1.80;;
74510;SDS011;62991;50.040;18.400;2022-09-21T14:24:43;3.38;;;1.60;;
74510;SDS011;62991;50.040;18.400;2022-09-21T14:27:50;5.43;;;1.80;;
74510;SDS011;62991;50.040;18.400;2022-09-21T14:30:55;9.15;;;3.45;;
74510;SDS011;62991;50.040;18.400;2022-09-21T14:34:02;6.68;;;2.55;;
74510;SDS011;62991;50.040;18.400;2022-09-21T14:37:29;5.10;;;2.03;;
74510;SDS011;62991;50.040;18.400;2022-09-21T14:40:34;6.28;;;1.60;;
74510;SDS011;62991;50.040;18.400;2022-09-21T14:43:41;3.47;;;1.60;;
74510;SDS011;62991;50.040;18.400;2022-09-21T14:53:29;4.13;;;1.90;;
74510;SDS011;62991;50.040;18.400;2022-09-21T15:00:21;3.45;;;1.67;;
74510;SDS011;62991;50.040;18.400;2022-09-21T15:19:39;1.90;;;0.88;;
74510;SDS011;62991;50.040;18.400;2022-09-21T15:22:42;5.13;;;1.20;;
74510;SDS011;62991;50.040;18.400;2022-09-21T15:25:44;2.58;;;1.30;;
74510;SDS011;62991;50.040;18.400;2022-09-21T15:28:58;2.75;;;1.10;;
74510;SDS011;62991;50.040;18.400;2022-09-21T15:32:01;4.00;;;1.40;;
74510;SDS011;62991;50.040;18.400;2022-09-21T15:35:25;3.10;;;1.60;;
74510;SDS011;62991;50.040;18.400;2022-09-21T15:38:30;3.33;;;1.50;;
74510;SDS011;62991;50.040;18.400;2022-09-21T15:41:36;6.78;;;1.88;;
74510;SDS011;62991;50.040;18.400;2022-09-21T15:44:44;5.20;;;1.40;;
74510;SDS011;62991;50.040;18.400;2022-09-21T15:47:47;4.85;;;1.95;;
74510;SDS011;62991;50.040;18.400;2022-09-21T15:50:58;4.13;;;1.50;;
74510;SDS011;62991;50.040;18.400;2022-09-21T15:54:30;2.22;;;1.30;;
74510;SDS011;62991;50.040;18.400;2022-09-21T15:57:42;4.80;;;1.48;;
74510;SDS011;62991;50.040;18.400;2022-09-21T16:00:48;3.20;;;1.63;;
74510;SDS011;62991;50.040;18.400;2022-09-21T16:04:01;4.80;;;1.60;;
74510;SDS011;62991;50.040;18.400;2022-09-21T16:07:06;7.00;;;1.88;;
74510;SDS011;62991;50.040;18.400;2022-09-21T16:13:30;6.70;;;2.58;;
74510;SDS011;62991;50.040;18.400;2022-09-21T16:17:02;5.20;;;2.42;;
74510;SDS011;62991;50.040;18.400;2022-09-21T16:20:17;8.55;;;3.00;;
74510;SDS011;62991;50.040;18.400;2022-09-21T16:23:20;10.55;;;3.78;;
74510;SDS011;62991;50.040;18.400;2022-09-21T16:29:37;13.63;;;5.18;;
74510;SDS011;62991;50.040;18.400;2022-09-21T16:32:41;24.67;;;9.00;;
74510;SDS011;62991;50.040;18.400;2022-09-21T16:35:42;24.20;;;11.13;;
74510;SDS011;62991;50.040;18.400;2022-09-21T16:38:43;27.83;;;13.48;;
74510;SDS011;62991;50.040;18.400;2022-09-21T16:41:47;36.85;;;17.05;;
74510;SDS011;62991;50.040;18.400;2022-09-21T16:45:01;29.58;;;13.80;;
74510;SDS011;62991;50.040;18.400;2022-09-21T16:48:15;21.00;;;9.40;;
74510;SDS011;62991;50.040;18.400;2022-09-21T16:51:16;31.73;;;14.10;;
74510;SDS011;62991;50.040;18.400;2022-09-21T16:54:21;28.98;;;14.48;;
74510;SDS011;62991;50.040;18.400;2022-09-21T16:57:25;39.47;;;16.70;;
74510;SDS011;62991;50.040;18.400;2022-09-21T17:00:27;37.15;;;16.67;;
74510;SDS011;62991;50.040;18.400;2022-09-21T17:03:31;35.95;;;17.33;;
74510;SDS011;62991;50.040;18.400;2022-09-21T17:06:33;38.55;;;18.33;;
74510;SDS011;62991;50.040;18.400;2022-09-21T17:09:39;34.85;;;16.08;;
74510;SDS011;62991;50.040;18.400;2022-09-21T17:12:46;40.30;;;17.70;;
74510;SDS011;62991;50.040;18.400;2022-09-21T17:15:47;37.42;;;15.07;;
74510;SDS011;62991;50.040;18.400;2022-09-21T17:18:48;36.40;;;14.13;;
74510;SDS011;62991;50.040;18.400;2022-09-21T17:21:49;34.10;;;13.30;;
74510;SDS011;62991;50.040;18.400;2022-09-21T17:24:50;38.72;;;13.35;;
74510;SDS011;62991;50.040;18.400;2022-09-21T17:27:53;48.50;;;19.33;;
74510;SDS011;62991;50.040;18.400;2022-09-21T17:30:57;53.90;;;22.73;;
74510;SDS011;62991;50.040;18.400;2022-09-21T17:33:59;50.50;;;17.88;;
74510;SDS011;62991;50.040;18.400;2022-09-21T17:37:09;32.70;;;13.15;;
74510;SDS011;62991;50.040;18.400;2022-09-21T17:40:10;35.85;;;12.40;;
74510;SDS011;62991;50.040;18.400;2022-09-21T17:43:15;38.47;;;15.30;;
74510;SDS011;62991;50.040;18.400;2022-09-21T17:46:55;32.70;;;15.77;;
74510;SDS011;62991;50.040;18.400;2022-09-21T17:53:19;25.80;;;10.82;;
74510;SDS011;62991;50.040;18.400;2022-09-21T17:56:45;22.65;;;8.80;;
74510;SDS011;62991;50.040;18.400;2022-09-21T17:59:56;23.90;;;10.05;;
74510;SDS011;62991;50.040;18.400;2022-09-21T18:03:07;26.77;;;10.05;;
74510;SDS011;62991;50.040;18.400;2022-09-21T18:06:21;33.30;;;13.20;;
74510;SDS011;62991;50.040;18.400;2022-09-21T18:09:22;34.67;;;13.85;;
74510;SDS011;62991;50.040;18.400;2022-09-21T18:25:35;27.30;;;9.52;;
74510;SDS011;62991;50.040;18.400;2022-09-21T18:28:47;23.23;;;9.35;;
74510;SDS011;62991;50.040;18.400;2022-09-21T18:38:35;21.30;;;9.07;;
74510;SDS011;62991;50.040;18.400;2022-09-21T18:41:47;25.38;;;11.32;;
74510;SDS011;62991;50.040;18.400;2022-09-21T18:45:17;30.00;;;12.15;;
74510;SDS011;62991;50.040;18.400;2022-09-21T18:51:47;28.33;;;12.32;;
74510;SDS011;62991;50.040;18.400;2022-09-21T18:55:10;35.38;;;12.90;;
74510;SDS011;62991;50.040;18.400;2022-09-21T18:58:17;25.10;;;9.13;;
74510;SDS011;62991;50.040;18.400;2022-09-21T19:01:18;25.83;;;10.90;;
74510;SDS011;62991;50.040;18.400;2022-09-21T19:04:21;20.48;;;9.60;;
74510;SDS011;62991;50.040;18.400;2022-09-21T19:10:44;14.05;;;6.30;;
74510;SDS011;62991;50.040;18.400;2022-09-21T19:14:01;15.85;;;6.30;;
74510;SDS011;62991;50.040;18.400;2022-09-21T19:17:27;19.27;;;6.68;;
74510;SDS011;62991;50.040;18.400;2022-09-21T19:20:51;15.35;;;6.50;;
74510;SDS011;62991;50.040;18.400;2022-09-21T19:24:22;18.38;;;8.13;;
74510;SDS011;62991;50.040;18.400;2022-09-21T19:27:39;20.77;;;8.95;;
74510;SDS011;62991;50.040;18.400;2022-09-21T19:30:47;20.30;;;8.00;;
74510;SDS011;62991;50.040;18.400;2022-09-21T19:33:52;21.83;;;8.05;;
74510;SDS011;62991;50.040;18.400;2022-09-21T19:36:53;22.50;;;7.82;;
74510;SDS011;62991;50.040;18.400;2022-09-21T19:39:56;16.42;;;7.35;;
74510;SDS011;62991;50.040;18.400;2022-09-21T19:49:23;15.43;;;6.50;;
74510;SDS011;62991;50.040;18.400;2022-09-21T19:52:33;29.63;;;11.13;;
74510;SDS011;62991;50.040;18.400;2022-09-21T19:55:35;26.83;;;12.50;;
74510;SDS011;62991;50.040;18.400;2022-09-21T19:58:54;30.75;;;13.70;;
74510;SDS011;62991;50.040;18.400;2022-09-21T20:02:15;23.25;;;10.02;;
74510;SDS011;62991;50.040;18.400;2022-09-21T20:08:28;13.07;;;5.78;;
74510;SDS011;62991;50.040;18.400;2022-09-21T20:14:49;25.60;;;9.70;;
74510;SDS011;62991;50.040;18.400;2022-09-21T20:21:28;18.17;;;8.20;;
74510;SDS011;62991;50.040;18.400;2022-09-21T20:24:38;14.32;;;6.63;;
74510;SDS011;62991;50.040;18.400;2022-09-21T20:27:53;18.63;;;7.15;;
74510;SDS011;62991;50.040;18.400;2022-09-21T20:30:55;14.30;;;5.68;;
74510;SDS011;62991;50.040;18.400;2022-09-21T20:33:56;11.68;;;4.90;;
74510;SDS011;62991;50.040;18.400;2022-09-21T20:36:57;12.18;;;5.53;;
74510;SDS011;62991;50.040;18.400;2022-09-21T20:39:57;10.77;;;5.25;;
74510;SDS011;62991;50.040;18.400;2022-09-21T20:42:58;11.43;;;5.68;;
74510;SDS011;62991;50.040;18.400;2022-09-21T20:46:00;13.13;;;5.38;;
74510;SDS011;62991;50.040;18.400;2022-09-21T20:49:02;12.95;;;5.05;;
74510;SDS011;62991;50.040;18.400;2022-09-21T20:52:07;13.77;;;5.30;;
74510;SDS011;62991;50.040;18.400;2022-09-21T20:55:11;9.88;;;4.72;;
74510;SDS011;62991;50.040;18.400;2022-09-21T20:58:14;15.75;;;5.53;;
74510;SDS011;62991;50.040;18.400;2022-09-21T21:01:14;10.30;;;4.63;;
74510;SDS011;62991;50.040;18.400;2022-09-21T21:04:15;10.35;;;4.65;;
74510;SDS011;62991;50.040;18.400;2022-09-21T21:07:16;9.93;;;4.68;;
74510;SDS011;62991;50.040;18.400;2022-09-21T21:10:16;14.60;;;5.80;;
74510;SDS011;62991;50.040;18.400;2022-09-21T21:13:18;8.05;;;4.53;;
74510;SDS011;62991;50.040;18.400;2022-09-21T21:16:18;10.00;;;4.50;;
74510;SDS011;62991;50.040;18.400;2022-09-21T21:19:19;14.48;;;4.82;;
74510;SDS011;62991;50.040;18.400;2022-09-21T21:22:20;15.75;;;6.10;;
74510;SDS011;62991;50.040;18.400;2022-09-21T21:25:21;8.93;;;4.47;;
74510;SDS011;62991;50.040;18.400;2022-09-21T21:28:21;13.15;;;4.07;;
74510;SDS011;62991;50.040;18.400;2022-09-21T21:31:22;6.63;;;2.97;;
74510;SDS011;62991;50.040;18.400;2022-09-21T21:34:24;11.90;;;4.40;;
74510;SDS011;62991;50.040;18.400;2022-09-21T21:37:25;9.35;;;3.30;;
74510;SDS011;62991;50.040;18.400;2022-09-21T21:40:26;9.30;;;3.97;;
74510;SDS011;62991;50.040;18.400;2022-09-21T21:43:30;7.30;;;3.47;;
74510;SDS011;62991;50.040;18.400;2022-09-21T21:46:32;6.60;;;3.30;;
74510;SDS011;62991;50.040;18.400;2022-09-21T21:49:33;10.10;;;3.33;;
74510;SDS011;62991;50.040;18.400;2022-09-21T21:52:34;5.25;;;3.15;;
74510;SDS011;62991;50.040;18.400;2022-09-21T21:55:35;6.13;;;3.28;;
74510;SDS011;62991;50.040;18.400;2022-09-21T21:58:35;6.10;;;3.10;;
74510;SDS011;62991;50.040;18.400;2022-09-21T22:01:37;7.18;;;2.78;;
74510;SDS011;62991;50.040;18.400;2022-09-21T22:04:39;6.45;;;3.25;;